sensor_id;sensor_type;location;lat;lon;timestamp;P1;durP1;ratioP1;P2;durP2;ratioP2
17947;SDS011;9099;47.958;11.366;2023-08-01T00:01:14;2.22;;;2.13;;
17947;SDS011;9099;47.958;11.366;2023-08-01T00:03:41;2.60;;;2.40;;
17947;SDS011;9099;47.958;11.366;2023-08-01T00:06:08;2.65;;;2.42;;
17947;SDS011;9099;47.958;11.366;2023-08-01T00:08:34;2.83;;;2.30;;
17947;SDS011;9099;47.958;11.366;2023-08-01T00:11:01;2.50;;;2.30;;
17947;SDS011;9099;47.958;11.366;2023-08-01T00:13:30;2.53;;;2.33;;
17947;SDS011;9099;47.958;11.366;2023-08-01T00:15:56;3.05;;;2.78;;
17947;SDS011;9099;47.958;11.366;2023-08-01T00:18:23;2.60;;;2.40;;
17947;SDS011;9099;47.958;11.366;2023-08-01T00:20:51;2.47;;;2.30;;
17947;SDS011;9099;47.958;11.366;2023-08-01T00:23:19;2.30;;;2.10;;
17947;SDS011;9099;47.958;11.366;2023-08-01T00:25:45;2.30;;;2.20;;
17947;SDS011;9099;47.958;11.366;2023-08-01T00:28:16;2.53;;;2.10;;
17947;SDS011;9099;47.958;11.366;2023-08-01T00:30:46;2.20;;;2.10;;
17947;SDS011;9099;47.958;11.366;2023-08-01T00:33:13;2.58;;;1.90;;
17947;SDS011;9099;47.958;11.366;2023-08-01T00:35:40;1.90;;;1.80;;
17947;SDS011;9099;47.958;11.366;2023-08-01T00:38:07;2.40;;;2.13;;
17947;SDS011;9099;47.958;11.366;2023-08-01T00:40:34;2.03;;;1.92;;
17947;SDS011;9099;47.958;11.366;2023-08-01T00:43:01;1.98;;;1.88;;
17947;SDS011;9099;47.958;11.366;2023-08-01T00:45:28;2.08;;;1.90;;
17947;SDS011;9099;47.958;11.366;2023-08-01T00:47:57;2.13;;;2.03;;
17947;SDS011;9099;47.958;11.366;2023-08-01T00:50:24;3.50;;;2.13;;
17947;SDS011;9099;47.958;11.366;2023-08-01T00:52:51;2.40;;;2.20;;
17947;SDS011;9099;47.958;11.366;2023-08-01T00:55:18;3.08;;;2.30;;
17947;SDS011;9099;47.958;11.366;2023-08-01T00:57:47;2.47;;;2.35;;
17947;SDS011;9099;47.958;11.366;2023-08-01T01:00:14;1.80;;;1.70;;
17947;SDS011;9099;47.958;11.366;2023-08-01T01:02:41;2.70;;;2.50;;
17947;SDS011;9099;47.958;11.366;2023-08-01T01:05:10;2.00;;;1.90;;
17947;SDS011;9099;47.958;11.366;2023-08-01T01:07:37;2.08;;;1.98;;
17947;SDS011;9099;47.958;11.366;2023-08-01T01:10:05;1.90;;;1.80;;
17947;SDS011;9099;47.958;11.366;2023-08-01T01:12:32;2.50;;;2.30;;
17947;SDS011;9099;47.958;11.366;2023-08-01T01:14:59;2.05;;;1.95;;
17947;SDS011;9099;47.958;11.366;2023-08-01T01:17:26;2.22;;;2.03;;
17947;SDS011;9099;47.958;11.366;2023-08-01T01:19:53;2.38;;;2.17;;
17947;SDS011;9099;47.958;11.366;2023-08-01T01:22:21;2.05;;;1.90;;
17947;SDS011;9099;47.958;11.366;2023-08-01T01:24:48;2.17;;;1.98;;
17947;SDS011;9099;47.958;11.366;2023-08-01T01:27:16;2.42;;;2.30;;
17947;SDS011;9099;47.958;11.366;2023-08-01T01:29:44;2.63;;;2.17;;
17947;SDS011;9099;47.958;11.366;2023-08-01T01:32:12;2.00;;;1.90;;
17947;SDS011;9099;47.958;11.366;2023-08-01T01:34:40;2.45;;;2.17;;
17947;SDS011;9099;47.958;11.366;2023-08-01T01:37:07;2.10;;;2.00;;
17947;SDS011;9099;47.958;11.366;2023-08-01T01:39:36;3.05;;;2.05;;
17947;SDS011;9099;47.958;11.366;2023-08-01T01:42:03;2.60;;;2.20;;
17947;SDS011;9099;47.958;11.366;2023-08-01T01:44:30;2.17;;;2.08;;
17947;SDS011;9099;47.958;11.366;2023-08-01T01:46:57;2.35;;;1.77;;
17947;SDS011;9099;47.958;11.366;2023-08-01T01:49:24;2.63;;;2.42;;
17947;SDS011;9099;47.958;11.366;2023-08-01T01:51:51;2.20;;;2.10;;
17947;SDS011;9099;47.958;11.366;2023-08-01T01:54:18;1.95;;;1.83;;
17947;SDS011;9099;47.958;11.366;2023-08-01T01:56:46;1.98;;;1.88;;
17947;SDS011;9099;47.958;11.366;2023-08-01T01:59:13;2.17;;;1.98;;
17947;SDS011;9099;47.958;11.366;2023-08-01T02:01:40;2.05;;;1.95;;
17947;SDS011;9099;47.958;11.366;2023-08-01T02:04:06;2.30;;;2.10;;
17947;SDS011;9099;47.958;11.366;2023-08-01T02:06:33;2.03;;;1.92;;
17947;SDS011;9099;47.958;11.366;2023-08-01T02:09:00;2.08;;;1.98;;
17947;SDS011;9099;47.958;11.366;2023-08-01T02:11:27;2.13;;;1.95;;
17947;SDS011;9099;47.958;11.366;2023-08-01T02:13:55;1.90;;;1.80;;
17947;SDS011;9099;47.958;11.366;2023-08-01T02:16:22;2.25;;;2.00;;
17947;SDS011;9099;47.958;11.366;2023-08-01T02:18:49;2.15;;;1.95;;
17947;SDS011;9099;47.958;11.366;2023-08-01T02:21:16;2.15;;;2.03;;
17947;SDS011;9099;47.958;11.366;2023-08-01T02:23:43;2.15;;;2.05;;
17947;SDS011;9099;47.958;11.366;2023-08-01T02:26:10;2.00;;;1.90;;
17947;SDS011;9099;47.958;11.366;2023-08-01T02:28:37;1.83;;;1.73;;
17947;SDS011;9099;47.958;11.366;2023-08-01T02:31:05;2.45;;;2.25;;
17947;SDS011;9099;47.958;11.366;2023-08-01T02:33:32;2.20;;;2.10;;
17947;SDS011;9099;47.958;11.366;2023-08-01T02:35:59;2.50;;;2.30;;
17947;SDS011;9099;47.958;11.366;2023-08-01T02:38:25;2.45;;;2.25;;
17947;SDS011;9099;47.958;11.366;2023-08-01T02:43:20;2.50;;;2.20;;
17947;SDS011;9099;47.958;11.366;2023-08-01T02:45:47;2.30;;;2.10;;
17947;SDS011;9099;47.958;11.366;2023-08-01T02:48:15;2.38;;;2.20;;
17947;SDS011;9099;47.958;11.366;2023-08-01T02:50:42;2.17;;;2.03;;
17947;SDS011;9099;47.958;11.366;2023-08-01T02:53:09;2.45;;;2.25;;
17947;SDS011;9099;47.958;11.366;2023-08-01T02:55:35;2.25;;;2.13;;
17947;SDS011;9099;47.958;11.366;2023-08-01T02:58:03;2.20;;;2.10;;
17947;SDS011;9099;47.958;11.366;2023-08-01T03:00:30;2.35;;;2.15;;
17947;SDS011;9099;47.958;11.366;2023-08-01T03:02:57;2.03;;;1.90;;
17947;SDS011;9099;47.958;11.366;2023-08-01T03:05:25;2.15;;;2.00;;
17947;SDS011;9099;47.958;11.366;2023-08-01T03:07:52;2.38;;;2.25;;
17947;SDS011;9099;47.958;11.366;2023-08-01T03:10:19;2.75;;;2.30;;
17947;SDS011;9099;47.958;11.366;2023-08-01T03:12:46;2.00;;;1.90;;
17947;SDS011;9099;47.958;11.366;2023-08-01T03:15:13;2.28;;;2.08;;
17947;SDS011;9099;47.958;11.366;2023-08-01T03:17:39;1.77;;;1.67;;
17947;SDS011;9099;47.958;11.366;2023-08-01T03:20:07;2.30;;;2.10;;
17947;SDS011;9099;47.958;11.366;2023-08-01T03:22:38;3.92;;;2.08;;
17947;SDS011;9099;47.958;11.366;2023-08-01T03:25:06;2.00;;;1.90;;
17947;SDS011;9099;47.958;11.366;2023-08-01T03:27:34;1.88;;;1.77;;
17947;SDS011;9099;47.958;11.366;2023-08-01T03:30:02;1.98;;;1.88;;
17947;SDS011;9099;47.958;11.366;2023-08-01T03:32:29;2.30;;;2.10;;
17947;SDS011;9099;47.958;11.366;2023-08-01T03:34:56;2.00;;;1.90;;
17947;SDS011;9099;47.958;11.366;2023-08-01T03:37:23;2.20;;;2.10;;
17947;SDS011;9099;47.958;11.366;2023-08-01T03:39:51;2.08;;;1.98;;
17947;SDS011;9099;47.958;11.366;2023-08-01T03:42:18;2.40;;;2.20;;
17947;SDS011;9099;47.958;11.366;2023-08-01T03:44:45;2.90;;;2.15;;
17947;SDS011;9099;47.958;11.366;2023-08-01T03:47:11;2.38;;;2.17;;
17947;SDS011;9099;47.958;11.366;2023-08-01T03:49:38;2.08;;;1.98;;
17947;SDS011;9099;47.958;11.366;2023-08-01T03:52:05;2.15;;;2.05;;
17947;SDS011;9099;47.958;11.366;2023-08-01T03:54:33;2.20;;;2.10;;
17947;SDS011;9099;47.958;11.366;2023-08-01T03:57:01;1.90;;;1.77;;
17947;SDS011;9099;47.958;11.366;2023-08-01T03:59:28;3.35;;;2.10;;
17947;SDS011;9099;47.958;11.366;2023-08-01T04:01:55;2.63;;;2.25;;
17947;SDS011;9099;47.958;11.366;2023-08-01T04:04:22;3.03;;;2.30;;
17947;SDS011;9099;47.958;11.366;2023-08-01T04:06:49;2.30;;;2.10;;
17947;SDS011;9099;47.958;11.366;2023-08-01T04:09:16;2.33;;;2.20;;
17947;SDS011;9099;47.958;11.366;2023-08-01T04:11:42;4.30;;;2.28;;
17947;SDS011;9099;47.958;11.366;2023-08-01T04:14:11;2.80;;;2.60;;
17947;SDS011;9099;47.958;11.366;2023-08-01T04:16:37;2.47;;;2.28;;
17947;SDS011;9099;47.958;11.366;2023-08-01T04:19:04;2.60;;;2.40;;
17947;SDS011;9099;47.958;11.366;2023-08-01T04:21:31;2.88;;;2.67;;
17947;SDS011;9099;47.958;11.366;2023-08-01T04:23:58;2.78;;;2.58;;
17947;SDS011;9099;47.958;11.366;2023-08-01T04:26:25;3.08;;;2.80;;
17947;SDS011;9099;47.958;11.366;2023-08-01T04:28:51;3.00;;;2.80;;
17947;SDS011;9099;47.958;11.366;2023-08-01T04:31:20;3.38;;;2.92;;
17947;SDS011;9099;47.958;11.366;2023-08-01T04:33:46;2.95;;;2.70;;
17947;SDS011;9099;47.958;11.366;2023-08-01T04:36:13;3.13;;;2.92;;
17947;SDS011;9099;47.958;11.366;2023-08-01T04:38:40;2.90;;;2.70;;
17947;SDS011;9099;47.958;11.366;2023-08-01T04:41:07;3.33;;;3.00;;
17947;SDS011;9099;47.958;11.366;2023-08-01T04:43:34;3.53;;;2.65;;
17947;SDS011;9099;47.958;11.366;2023-08-01T04:46:01;2.88;;;2.67;;
17947;SDS011;9099;47.958;11.366;2023-08-01T04:48:29;2.75;;;2.55;;
17947;SDS011;9099;47.958;11.366;2023-08-01T04:50:56;3.75;;;3.15;;
17947;SDS011;9099;47.958;11.366;2023-08-01T04:53:23;3.20;;;3.00;;
17947;SDS011;9099;47.958;11.366;2023-08-01T04:55:50;3.13;;;2.92;;
17947;SDS011;9099;47.958;11.366;2023-08-01T04:58:17;2.78;;;2.58;;
17947;SDS011;9099;47.958;11.366;2023-08-01T05:00:43;2.72;;;2.45;;
17947;SDS011;9099;47.958;11.366;2023-08-01T05:03:10;3.00;;;2.80;;
17947;SDS011;9099;47.958;11.366;2023-08-01T05:05:38;3.28;;;3.00;;
17947;SDS011;9099;47.958;11.366;2023-08-01T05:08:05;3.15;;;2.85;;
17947;SDS011;9099;47.958;11.366;2023-08-01T05:10:32;3.88;;;3.22;;
17947;SDS011;9099;47.958;11.366;2023-08-01T05:12:59;3.60;;;3.30;;
17947;SDS011;9099;47.958;11.366;2023-08-01T05:15:26;3.03;;;2.83;;
17947;SDS011;9099;47.958;11.366;2023-08-01T05:17:52;3.30;;;3.05;;
17947;SDS011;9099;47.958;11.366;2023-08-01T05:20:20;4.13;;;3.00;;
17947;SDS011;9099;47.958;11.366;2023-08-01T05:22:49;3.20;;;3.00;;
17947;SDS011;9099;47.958;11.366;2023-08-01T05:25:15;3.15;;;2.80;;
17947;SDS011;9099;47.958;11.366;2023-08-01T05:27:42;3.55;;;3.25;;
17947;SDS011;9099;47.958;11.366;2023-08-01T05:30:10;3.20;;;3.00;;
17947;SDS011;9099;47.958;11.366;2023-08-01T05:32:37;2.97;;;2.78;;
17947;SDS011;9099;47.958;11.366;2023-08-01T05:35:05;3.50;;;3.20;;
17947;SDS011;9099;47.958;11.366;2023-08-01T05:37:33;5.57;;;3.38;;
17947;SDS011;9099;47.958;11.366;2023-08-01T05:40:01;3.15;;;2.95;;
17947;SDS011;9099;47.958;11.366;2023-08-01T05:42:28;3.17;;;2.88;;
17947;SDS011;9099;47.958;11.366;2023-08-01T05:44:55;3.58;;;3.28;;
17947;SDS011;9099;47.958;11.366;2023-08-01T05:47:22;3.20;;;3.00;;
17947;SDS011;9099;47.958;11.366;2023-08-01T05:49:49;5.28;;;2.88;;
17947;SDS011;9099;47.958;11.366;2023-08-01T05:52:16;3.30;;;3.00;;
17947;SDS011;9099;47.958;11.366;2023-08-01T05:54:43;3.38;;;3.08;;
17947;SDS011;9099;47.958;11.366;2023-08-01T05:57:11;3.45;;;3.17;;
17947;SDS011;9099;47.958;11.366;2023-08-01T05:59:38;3.53;;;3.22;;
17947;SDS011;9099;47.958;11.366;2023-08-01T06:02:05;3.55;;;3.30;;
17947;SDS011;9099;47.958;11.366;2023-08-01T06:04:32;3.47;;;3.10;;
17947;SDS011;9099;47.958;11.366;2023-08-01T06:06:59;3.38;;;3.00;;
17947;SDS011;9099;47.958;11.366;2023-08-01T06:09:26;3.78;;;3.03;;
17947;SDS011;9099;47.958;11.366;2023-08-01T06:11:52;3.38;;;3.08;;
17947;SDS011;9099;47.958;11.366;2023-08-01T06:14:21;3.25;;;2.95;;
17947;SDS011;9099;47.958;11.366;2023-08-01T06:16:48;3.38;;;3.08;;
17947;SDS011;9099;47.958;11.366;2023-08-01T06:19:15;3.03;;;2.80;;
17947;SDS011;9099;47.958;11.366;2023-08-01T06:21:41;3.22;;;2.95;;
17947;SDS011;9099;47.958;11.366;2023-08-01T06:24:08;4.07;;;2.88;;
17947;SDS011;9099;47.958;11.366;2023-08-01T06:26:35;3.45;;;2.63;;
17947;SDS011;9099;47.958;11.366;2023-08-01T06:29:02;3.05;;;2.85;;
17947;SDS011;9099;47.958;11.366;2023-08-01T06:31:31;2.92;;;2.70;;
17947;SDS011;9099;47.958;11.366;2023-08-01T06:33:58;2.80;;;2.60;;
17947;SDS011;9099;47.958;11.366;2023-08-01T06:36:24;3.42;;;2.60;;
17947;SDS011;9099;47.958;11.366;2023-08-01T06:38:51;3.20;;;2.72;;
17947;SDS011;9099;47.958;11.366;2023-08-01T06:41:18;3.70;;;2.50;;
17947;SDS011;9099;47.958;11.366;2023-08-01T06:43:45;3.35;;;2.45;;
17947;SDS011;9099;47.958;11.366;2023-08-01T06:46:12;3.38;;;2.67;;
17947;SDS011;9099;47.958;11.366;2023-08-01T06:48:40;3.47;;;2.63;;
17947;SDS011;9099;47.958;11.366;2023-08-01T06:51:07;2.83;;;2.63;;
17947;SDS011;9099;47.958;11.366;2023-08-01T06:53:34;3.38;;;2.75;;
17947;SDS011;9099;47.958;11.366;2023-08-01T06:56:00;2.88;;;2.42;;
17947;SDS011;9099;47.958;11.366;2023-08-01T06:58:27;2.63;;;2.42;;
17947;SDS011;9099;47.958;11.366;2023-08-01T07:00:54;3.35;;;2.85;;
17947;SDS011;9099;47.958;11.366;2023-08-01T07:03:21;2.50;;;2.30;;
17947;SDS011;9099;47.958;11.366;2023-08-01T07:05:49;3.00;;;2.80;;
17947;SDS011;9099;47.958;11.366;2023-08-01T07:08:17;2.92;;;2.47;;
17947;SDS011;9099;47.958;11.366;2023-08-01T07:10:43;2.88;;;2.60;;
17947;SDS011;9099;47.958;11.366;2023-08-01T07:13:12;2.60;;;2.40;;
17947;SDS011;9099;47.958;11.366;2023-08-01T07:15:39;2.95;;;2.65;;
17947;SDS011;9099;47.958;11.366;2023-08-01T07:18:06;3.58;;;2.65;;
17947;SDS011;9099;47.958;11.366;2023-08-01T07:20:33;2.78;;;2.58;;
17947;SDS011;9099;47.958;11.366;2023-08-01T07:23:01;2.50;;;2.30;;
17947;SDS011;9099;47.958;11.366;2023-08-01T07:25:28;3.10;;;2.40;;
17947;SDS011;9099;47.958;11.366;2023-08-01T07:27:55;2.75;;;2.45;;
17947;SDS011;9099;47.958;11.366;2023-08-01T07:30:22;2.75;;;2.55;;
17947;SDS011;9099;47.958;11.366;2023-08-01T07:32:49;2.70;;;2.50;;
17947;SDS011;9099;47.958;11.366;2023-08-01T07:35:17;2.90;;;2.60;;
17947;SDS011;9099;47.958;11.366;2023-08-01T07:37:44;2.72;;;2.53;;
17947;SDS011;9099;47.958;11.366;2023-08-01T07:40:12;2.95;;;2.75;;
17947;SDS011;9099;47.958;11.366;2023-08-01T07:42:38;4.30;;;2.70;;
17947;SDS011;9099;47.958;11.366;2023-08-01T07:45:06;2.88;;;2.50;;
17947;SDS011;9099;47.958;11.366;2023-08-01T07:47:33;2.95;;;2.55;;
17947;SDS011;9099;47.958;11.366;2023-08-01T07:50:00;3.30;;;2.25;;
17947;SDS011;9099;47.958;11.366;2023-08-01T07:52:27;3.17;;;2.97;;
17947;SDS011;9099;47.958;11.366;2023-08-01T07:54:53;2.88;;;2.65;;
17947;SDS011;9099;47.958;11.366;2023-08-01T07:57:24;2.78;;;2.58;;
17947;SDS011;9099;47.958;11.366;2023-08-01T07:59:50;3.63;;;2.63;;
17947;SDS011;9099;47.958;11.366;2023-08-01T08:02:17;2.55;;;2.35;;
17947;SDS011;9099;47.958;11.366;2023-08-01T08:04:44;4.30;;;2.70;;
17947;SDS011;9099;47.958;11.366;2023-08-01T08:07:11;2.95;;;2.67;;
17947;SDS011;9099;47.958;11.366;2023-08-01T08:09:37;3.88;;;2.72;;
17947;SDS011;9099;47.958;11.366;2023-08-01T08:12:05;3.08;;;2.78;;
17947;SDS011;9099;47.958;11.366;2023-08-01T08:14:34;3.65;;;2.65;;
17947;SDS011;9099;47.958;11.366;2023-08-01T08:17:01;3.05;;;2.80;;
17947;SDS011;9099;47.958;11.366;2023-08-01T08:19:28;2.95;;;2.75;;
17947;SDS011;9099;47.958;11.366;2023-08-01T08:21:55;3.50;;;2.70;;
17947;SDS011;9099;47.958;11.366;2023-08-01T08:24:21;3.72;;;2.83;;
17947;SDS011;9099;47.958;11.366;2023-08-01T08:26:48;2.90;;;2.70;;
17947;SDS011;9099;47.958;11.366;2023-08-01T08:29:15;3.42;;;2.72;;
17947;SDS011;9099;47.958;11.366;2023-08-01T08:31:43;3.03;;;2.70;;
17947;SDS011;9099;47.958;11.366;2023-08-01T08:34:10;3.00;;;2.67;;
17947;SDS011;9099;47.958;11.366;2023-08-01T08:36:37;3.15;;;2.55;;
17947;SDS011;9099;47.958;11.366;2023-08-01T08:39:04;3.33;;;3.00;;
17947;SDS011;9099;47.958;11.366;2023-08-01T08:41:34;3.40;;;3.20;;
17947;SDS011;9099;47.958;11.366;2023-08-01T08:44:04;3.10;;;2.90;;
17947;SDS011;9099;47.958;11.366;2023-08-01T08:46:36;3.67;;;3.38;;
17947;SDS011;9099;47.958;11.366;2023-08-01T08:49:07;3.85;;;2.92;;
17947;SDS011;9099;47.958;11.366;2023-08-01T08:51:35;2.97;;;2.78;;
17947;SDS011;9099;47.958;11.366;2023-08-01T08:54:03;3.47;;;3.17;;
17947;SDS011;9099;47.958;11.366;2023-08-01T08:56:32;3.60;;;3.30;;
17947;SDS011;9099;47.958;11.366;2023-08-01T08:59:06;3.67;;;3.30;;
17947;SDS011;9099;47.958;11.366;2023-08-01T09:01:35;3.40;;;3.00;;
17947;SDS011;9099;47.958;11.366;2023-08-01T09:04:02;3.90;;;3.20;;
17947;SDS011;9099;47.958;11.366;2023-08-01T09:06:31;3.55;;;3.25;;
17947;SDS011;9099;47.958;11.366;2023-08-01T09:09:01;3.50;;;3.20;;
17947;SDS011;9099;47.958;11.366;2023-08-01T09:11:35;3.25;;;2.90;;
17947;SDS011;9099;47.958;11.366;2023-08-01T09:14:07;3.40;;;3.10;;
17947;SDS011;9099;47.958;11.366;2023-08-01T09:16:34;3.40;;;3.20;;
17947;SDS011;9099;47.958;11.366;2023-08-01T09:19:01;4.07;;;3.30;;
17947;SDS011;9099;47.958;11.366;2023-08-01T09:21:32;4.47;;;3.00;;
17947;SDS011;9099;47.958;11.366;2023-08-01T09:24:07;3.75;;;3.17;;
17947;SDS011;9099;47.958;11.366;2023-08-01T09:26:35;3.30;;;3.10;;
17947;SDS011;9099;47.958;11.366;2023-08-01T09:29:02;3.90;;;3.38;;
17947;SDS011;9099;47.958;11.366;2023-08-01T09:31:29;3.60;;;3.28;;
17947;SDS011;9099;47.958;11.366;2023-08-01T09:33:57;3.33;;;3.00;;
17947;SDS011;9099;47.958;11.366;2023-08-01T09:36:24;3.50;;;3.30;;
17947;SDS011;9099;47.958;11.366;2023-08-01T09:38:57;3.10;;;2.85;;
17947;SDS011;9099;47.958;11.366;2023-08-01T09:41:24;3.80;;;3.50;;
17947;SDS011;9099;47.958;11.366;2023-08-01T09:43:51;3.72;;;3.40;;
17947;SDS011;9099;47.958;11.366;2023-08-01T09:46:19;3.30;;;3.10;;
17947;SDS011;9099;47.958;11.366;2023-08-01T09:48:45;3.30;;;3.00;;
17947;SDS011;9099;47.958;11.366;2023-08-01T09:51:13;4.38;;;3.08;;
17947;SDS011;9099;47.958;11.366;2023-08-01T09:53:48;3.22;;;3.03;;
17947;SDS011;9099;47.958;11.366;2023-08-01T09:56:20;4.43;;;3.28;;
17947;SDS011;9099;47.958;11.366;2023-08-01T09:58:48;3.25;;;3.05;;
17947;SDS011;9099;47.958;11.366;2023-08-01T10:01:17;3.45;;;2.80;;
17947;SDS011;9099;47.958;11.366;2023-08-01T10:03:46;3.28;;;3.00;;
17947;SDS011;9099;47.958;11.366;2023-08-01T10:06:14;3.45;;;2.90;;
17947;SDS011;9099;47.958;11.366;2023-08-01T10:08:45;3.75;;;3.40;;
17947;SDS011;9099;47.958;11.366;2023-08-01T10:11:12;3.42;;;3.15;;
17947;SDS011;9099;47.958;11.366;2023-08-01T10:13:42;2.97;;;2.78;;
17947;SDS011;9099;47.958;11.366;2023-08-01T10:16:09;3.58;;;3.28;;
17947;SDS011;9099;47.958;11.366;2023-08-01T10:18:37;3.80;;;3.35;;
17947;SDS011;9099;47.958;11.366;2023-08-01T10:21:05;3.28;;;2.95;;
17947;SDS011;9099;47.958;11.366;2023-08-01T10:23:33;3.28;;;2.97;;
17947;SDS011;9099;47.958;11.366;2023-08-01T10:26:01;3.65;;;3.05;;
17947;SDS011;9099;47.958;11.366;2023-08-01T10:28:31;3.53;;;3.22;;
17947;SDS011;9099;47.958;11.366;2023-08-01T10:31:07;3.70;;;3.40;;
17947;SDS011;9099;47.958;11.366;2023-08-01T10:33:38;3.28;;;3.03;;
17947;SDS011;9099;47.958;11.366;2023-08-01T10:36:12;3.20;;;2.90;;
17947;SDS011;9099;47.958;11.366;2023-08-01T10:38:50;3.10;;;2.90;;
17947;SDS011;9099;47.958;11.366;2023-08-01T10:41:18;3.53;;;3.20;;
17947;SDS011;9099;47.958;11.366;2023-08-01T10:43:46;3.25;;;2.95;;
17947;SDS011;9099;47.958;11.366;2023-08-01T10:46:14;3.28;;;2.95;;
17947;SDS011;9099;47.958;11.366;2023-08-01T10:48:48;3.10;;;2.78;;
17947;SDS011;9099;47.958;11.366;2023-08-01T10:51:15;2.78;;;2.58;;
17947;SDS011;9099;47.958;11.366;2023-08-01T10:53:42;3.33;;;3.03;;
17947;SDS011;9099;47.958;11.366;2023-08-01T10:56:15;3.35;;;3.05;;
17947;SDS011;9099;47.958;11.366;2023-08-01T10:58:43;2.70;;;2.50;;
17947;SDS011;9099;47.958;11.366;2023-08-01T11:01:10;3.15;;;2.85;;
17947;SDS011;9099;47.958;11.366;2023-08-01T11:03:39;3.08;;;2.88;;
17947;SDS011;9099;47.958;11.366;2023-08-01T11:06:07;3.30;;;3.00;;
17947;SDS011;9099;47.958;11.366;2023-08-01T11:08:34;3.00;;;2.80;;
17947;SDS011;9099;47.958;11.366;2023-08-01T11:11:03;3.00;;;2.78;;
17947;SDS011;9099;47.958;11.366;2023-08-01T11:13:31;3.35;;;2.78;;
17947;SDS011;9099;47.958;11.366;2023-08-01T11:16:00;3.00;;;2.80;;
17947;SDS011;9099;47.958;11.366;2023-08-01T11:18:28;2.83;;;2.63;;
17947;SDS011;9099;47.958;11.366;2023-08-01T11:20:57;2.40;;;2.30;;
17947;SDS011;9099;47.958;11.366;2023-08-01T11:23:27;2.92;;;2.60;;
17947;SDS011;9099;47.958;11.366;2023-08-01T11:25:55;2.60;;;2.40;;
17947;SDS011;9099;47.958;11.366;2023-08-01T11:28:22;2.35;;;2.15;;
17947;SDS011;9099;47.958;11.366;2023-08-01T11:30:49;2.13;;;2.03;;
17947;SDS011;9099;47.958;11.366;2023-08-01T11:33:17;2.63;;;2.42;;
17947;SDS011;9099;47.958;11.366;2023-08-01T11:35:46;2.60;;;2.40;;
17947;SDS011;9099;47.958;11.366;2023-08-01T11:38:20;2.60;;;2.40;;
17947;SDS011;9099;47.958;11.366;2023-08-01T11:40:48;2.55;;;2.35;;
17947;SDS011;9099;47.958;11.366;2023-08-01T11:43:15;2.80;;;2.47;;
17947;SDS011;9099;47.958;11.366;2023-08-01T11:45:49;3.00;;;2.80;;
17947;SDS011;9099;47.958;11.366;2023-08-01T11:48:16;3.80;;;2.60;;
17947;SDS011;9099;47.958;11.366;2023-08-01T11:50:43;2.65;;;2.50;;
17947;SDS011;9099;47.958;11.366;2023-08-01T11:53:17;2.83;;;2.63;;
17947;SDS011;9099;47.958;11.366;2023-08-01T11:55:46;2.42;;;2.22;;
17947;SDS011;9099;47.958;11.366;2023-08-01T11:58:14;2.65;;;2.45;;
17947;SDS011;9099;47.958;11.366;2023-08-01T12:00:41;2.60;;;2.40;;
17947;SDS011;9099;47.958;11.366;2023-08-01T12:03:09;2.63;;;2.20;;
17947;SDS011;9099;47.958;11.366;2023-08-01T12:05:38;2.70;;;2.50;;
17947;SDS011;9099;47.958;11.366;2023-08-01T12:08:09;2.58;;;2.38;;
17947;SDS011;9099;47.958;11.366;2023-08-01T12:10:39;2.03;;;1.90;;
17947;SDS011;9099;47.958;11.366;2023-08-01T12:13:07;2.50;;;2.30;;
17947;SDS011;9099;47.958;11.366;2023-08-01T12:15:45;2.08;;;1.98;;
17947;SDS011;9099;47.958;11.366;2023-08-01T12:18:18;2.10;;;2.00;;
17947;SDS011;9099;47.958;11.366;2023-08-01T12:20:46;2.08;;;1.90;;
17947;SDS011;9099;47.958;11.366;2023-08-01T12:23:13;1.90;;;1.70;;
17947;SDS011;9099;47.958;11.366;2023-08-01T12:25:41;2.40;;;1.90;;
17947;SDS011;9099;47.958;11.366;2023-08-01T12:28:08;2.78;;;1.80;;
17947;SDS011;9099;47.958;11.366;2023-08-01T12:30:35;1.98;;;1.88;;
17947;SDS011;9099;47.958;11.366;2023-08-01T12:33:02;2.00;;;1.90;;
17947;SDS011;9099;47.958;11.366;2023-08-01T12:35:28;1.63;;;1.52;;
17947;SDS011;9099;47.958;11.366;2023-08-01T12:37:55;1.60;;;1.50;;
17947;SDS011;9099;47.958;11.366;2023-08-01T12:40:22;1.67;;;1.58;;
17947;SDS011;9099;47.958;11.366;2023-08-01T12:42:50;1.80;;;1.63;;
17947;SDS011;9099;47.958;11.366;2023-08-01T12:45:17;2.08;;;1.98;;
17947;SDS011;9099;47.958;11.366;2023-08-01T12:47:44;1.88;;;1.67;;
17947;SDS011;9099;47.958;11.366;2023-08-01T12:50:12;1.70;;;1.60;;
17947;SDS011;9099;47.958;11.366;2023-08-01T12:52:39;2.47;;;2.00;;
17947;SDS011;9099;47.958;11.366;2023-08-01T12:55:06;1.75;;;1.65;;
17947;SDS011;9099;47.958;11.366;2023-08-01T12:57:33;3.00;;;1.67;;
17947;SDS011;9099;47.958;11.366;2023-08-01T13:00:01;1.60;;;1.50;;
17947;SDS011;9099;47.958;11.366;2023-08-01T13:02:28;1.92;;;1.83;;
17947;SDS011;9099;47.958;11.366;2023-08-01T13:04:55;1.70;;;1.60;;
17947;SDS011;9099;47.958;11.366;2023-08-01T13:07:23;1.90;;;1.80;;
17947;SDS011;9099;47.958;11.366;2023-08-01T13:09:49;2.13;;;1.50;;
17947;SDS011;9099;47.958;11.366;2023-08-01T13:12:16;1.65;;;1.55;;
17947;SDS011;9099;47.958;11.366;2023-08-01T13:14:43;1.88;;;1.50;;
17947;SDS011;9099;47.958;11.366;2023-08-01T13:17:11;1.95;;;1.63;;
17947;SDS011;9099;47.958;11.366;2023-08-01T13:19:38;1.73;;;1.63;;
17947;SDS011;9099;47.958;11.366;2023-08-01T13:22:05;2.35;;;1.92;;
17947;SDS011;9099;47.958;11.366;2023-08-01T13:24:32;1.75;;;1.60;;
17947;SDS011;9099;47.958;11.366;2023-08-01T13:26:59;1.80;;;1.70;;
17947;SDS011;9099;47.958;11.366;2023-08-01T13:29:26;1.92;;;1.75;;
17947;SDS011;9099;47.958;11.366;2023-08-01T13:31:53;1.88;;;1.77;;
17947;SDS011;9099;47.958;11.366;2023-08-01T13:34:21;1.80;;;1.70;;
17947;SDS011;9099;47.958;11.366;2023-08-01T13:36:49;2.03;;;1.92;;
17947;SDS011;9099;47.958;11.366;2023-08-01T13:39:16;2.95;;;1.70;;
17947;SDS011;9099;47.958;11.366;2023-08-01T13:41:42;1.67;;;1.58;;
17947;SDS011;9099;47.958;11.366;2023-08-01T13:44:09;1.70;;;1.60;;
17947;SDS011;9099;47.958;11.366;2023-08-01T13:46:36;1.70;;;1.60;;
17947;SDS011;9099;47.958;11.366;2023-08-01T13:49:03;2.10;;;1.52;;
17947;SDS011;9099;47.958;11.366;2023-08-01T13:51:32;1.90;;;1.52;;
17947;SDS011;9099;47.958;11.366;2023-08-01T13:53:59;1.55;;;1.45;;
17947;SDS011;9099;47.958;11.366;2023-08-01T13:56:26;1.50;;;1.40;;
17947;SDS011;9099;47.958;11.366;2023-08-01T13:58:53;1.70;;;1.60;;
17947;SDS011;9099;47.958;11.366;2023-08-01T14:01:20;1.42;;;1.33;;
17947;SDS011;9099;47.958;11.366;2023-08-01T14:03:46;1.20;;;1.20;;
17947;SDS011;9099;47.958;11.366;2023-08-01T14:06:14;1.10;;;1.10;;
17947;SDS011;9099;47.958;11.366;2023-08-01T14:08:42;1.50;;;1.40;;
17947;SDS011;9099;47.958;11.366;2023-08-01T14:11:09;1.30;;;1.20;;
17947;SDS011;9099;47.958;11.366;2023-08-01T14:13:36;1.05;;;1.05;;
17947;SDS011;9099;47.958;11.366;2023-08-01T14:16:03;1.08;;;1.08;;
17947;SDS011;9099;47.958;11.366;2023-08-01T14:18:30;1.27;;;1.20;;
17947;SDS011;9099;47.958;11.366;2023-08-01T14:20:58;1.70;;;1.25;;
17947;SDS011;9099;47.958;11.366;2023-08-01T14:23:25;1.85;;;1.50;;
17947;SDS011;9099;47.958;11.366;2023-08-01T14:25:54;1.00;;;0.95;;
17947;SDS011;9099;47.958;11.366;2023-08-01T14:28:23;1.80;;;1.30;;
17947;SDS011;9099;47.958;11.366;2023-08-01T14:30:50;1.48;;;1.10;;
17947;SDS011;9099;47.958;11.366;2023-08-01T14:33:16;1.20;;;1.20;;
17947;SDS011;9099;47.958;11.366;2023-08-01T14:35:46;0.93;;;0.93;;
17947;SDS011;9099;47.958;11.366;2023-08-01T14:38:13;1.15;;;1.10;;
17947;SDS011;9099;47.958;11.366;2023-08-01T14:40:39;1.00;;;1.00;;
17947;SDS011;9099;47.958;11.366;2023-08-01T14:43:08;2.20;;;1.08;;
17947;SDS011;9099;47.958;11.366;2023-08-01T14:45:36;1.08;;;1.08;;
17947;SDS011;9099;47.958;11.366;2023-08-01T14:48:04;0.88;;;0.88;;
17947;SDS011;9099;47.958;11.366;2023-08-01T14:50:31;1.35;;;0.98;;
17947;SDS011;9099;47.958;11.366;2023-08-01T14:52:58;1.00;;;1.00;;